KSPI/SPI METAR and TAF weather

Enter ICAO airport designator
Station Type Date Time Source
KSPI METAR 2019/08/25 14:52 UTC NOAA

KSPI 251452Z 11007KT 10SM BKN085 21/15 A3005 RMK AO2 RAE03 SLP172 P0000 60000 T02060150 56007


Station Type Date Time Source
KSPI Decoded METAR 2019/08/25 14:52 UTC NOAA

Station name not available
Aug 25, 2019 - 10:52 AM EDT / 2019.08.25 1452 UTC
Wind: from the ESE (110 degrees) at 8 MPH (7 KT):0
Visibility: 10 mile(s):0
Sky conditions: mostly cloudy
Precipitation last hour: A trace
Temperature: 69.1 F (20.6 C)
Dew Point: 59.0 F (15.0 C)
Relative Humidity: 70%
Pressure (altimeter): 30.05 in. Hg (1017 hPa)
Pressure tendency: 0.02 inches (0.7 hPa) lower than three hours ago
ob: KSPI 251452Z 11007KT 10SM BKN085 21/15 A3005 RMK AO2 RAE03 SLP172 P0000 60000 T02060150 56007
cycle: 15

Station Type Date Time Source
KSPI TAF 2019/08/25 12:30 UTC NOAA

TAF KSPI 251128Z 2512/2612 10006KT P6SM VCSH OVC090
FM251800 10007KT P6SM BKN080
FM260400 10005KT P6SM VCTS OVC030CB

Example: see airport list